createdAt,value
2023-03-02T00:12:36.698Z,26.00
2023-03-02T00:27:58.373Z,35.03
2023-03-02T00:43:19.549Z,14.90
2023-03-02T00:58:40.934Z,15.77
2023-03-02T01:14:02.225Z,30.03
2023-03-02T01:29:23.246Z,20.77
2023-03-02T01:44:44.732Z,36.70
2023-03-02T02:00:08.713Z,21.57
2023-03-02T02:15:30.024Z,18.27
2023-03-02T02:30:51.864Z,24.27
2023-03-02T02:46:13.310Z,30.13
2023-03-02T03:01:34.662Z,16.73
2023-03-02T03:16:56.154Z,24.70
2023-03-02T03:32:17.630Z,23.17
2023-03-02T03:47:38.790Z,18.03
2023-03-02T04:03:00.248Z,20.17
2023-03-02T04:18:21.692Z,17.67
2023-03-02T04:33:42.700Z,20.30
2023-03-02T04:49:04.636Z,10.80
2023-03-02T05:04:26.013Z,20.77
2023-03-02T05:19:47.004Z,23.80
2023-03-02T05:35:08.227Z,22.87
2023-03-02T05:50:29.515Z,17.80
2023-03-02T06:05:52.629Z,21.03
2023-03-02T06:21:13.979Z,11.20
2023-03-02T06:36:35.600Z,30.50
2023-03-02T06:51:56.910Z,20.97
2023-03-02T07:07:18.419Z,28.03
2023-03-02T07:22:40.055Z,22.53
2023-03-02T07:38:01.578Z,37.87
2023-03-02T07:53:22.763Z,43.73
2023-03-02T08:08:44.095Z,65.90
2023-03-02T08:24:05.377Z,27.07
2023-03-02T08:39:30.504Z,21.83
2023-03-02T08:54:51.555Z,74.73
2023-03-02T09:10:13.303Z,55.53
2023-03-02T09:25:34.421Z,133.23
2023-03-02T09:41:14.340Z,43.30
2023-03-02T09:56:38.125Z,34.53
2023-03-02T10:12:02.601Z,77.70
2023-03-02T10:27:28.414Z,45.57
2023-03-02T10:42:49.599Z,25.33
2023-03-02T10:58:26.229Z,39.93
2023-03-02T11:13:47.351Z,19.03
2023-03-02T11:29:14.505Z,14.73
2023-03-02T11:44:36.035Z,9.93
2023-03-02T11:59:58.747Z,20.37
2023-03-02T12:15:30.908Z,19.40
2023-03-02T12:31:03.118Z,18.37
2023-03-02T12:46:30.491Z,16.73
2023-03-02T13:01:51.776Z,10.47
2023-03-02T13:17:23.108Z,14.13
2023-03-02T13:32:44.697Z,6.50
2023-03-02T13:48:18.375Z,26.97
2023-03-02T14:03:39.702Z,10.60
2023-03-02T14:19:01.097Z,9.53
2023-03-02T14:34:22.703Z,15.97
2023-03-02T14:49:44.240Z,11.10
2023-03-02T15:05:05.921Z,73.00
2023-03-02T15:20:27.128Z,26.00
2023-03-02T15:35:54.342Z,51.37
2023-03-02T15:51:16.498Z,49.57
2023-03-02T16:06:37.627Z,37.40
2023-03-02T16:21:59.046Z,72.97
2023-03-02T16:37:20.431Z,93.37
2023-03-02T16:52:41.677Z,106.63
2023-03-02T17:08:05.468Z,118.87
2023-03-02T17:23:27.408Z,39.37
2023-03-02T17:38:48.545Z,51.73
2023-03-02T17:54:09.920Z,49.23
2023-03-02T18:09:31.473Z,42.30
2023-03-02T18:24:53.199Z,89.03
2023-03-02T18:40:14.406Z,55.13
2023-03-02T18:55:37.477Z,45.80
2023-03-02T19:10:59.100Z,41.17
2023-03-02T19:26:20.369Z,30.83
2023-03-02T19:41:41.763Z,62.40
2023-03-02T19:57:03.860Z,84.37
2023-03-02T20:12:25.462Z,67.07
2023-03-02T20:27:49.370Z,101.17
2023-03-02T20:43:10.537Z,93.57
2023-03-02T20:58:32.153Z,97.43
2023-03-02T21:13:55.566Z,59.53
2023-03-02T21:29:17.143Z,52.73
2023-03-02T21:44:38.538Z,71.33
2023-03-02T22:00:00.308Z,96.13
2023-03-02T22:15:24.493Z,58.90
2023-03-02T22:30:45.808Z,73.30
2023-03-02T22:46:17.699Z,51.90
2023-03-02T23:01:42.880Z,64.47
2023-03-02T23:17:09.402Z,47.73
2023-03-02T23:32:30.918Z,53.53
2023-03-02T23:47:52.533Z,57.83
